sensor_id;sensor_type;location;lat;lon;timestamp;pressure;altitude;pressure_sealevel;temperature;humidity
37200;BME280;23096;50.892;16.746;2023-07-22T00:00:42;98849.46;;;16.78;66.60
37200;BME280;23096;50.892;16.746;2023-07-22T00:03:08;98850.14;;;16.81;66.89
37200;BME280;23096;50.892;16.746;2023-07-22T00:05:33;98852.73;;;16.81;66.78
37200;BME280;23096;50.892;16.746;2023-07-22T00:07:59;98854.46;;;16.79;66.73
37200;BME280;23096;50.892;16.746;2023-07-22T00:10:24;98847.70;;;16.79;66.98
37200;BME280;23096;50.892;16.746;2023-07-22T00:12:50;98843.98;;;16.80;66.94
37200;BME280;23096;50.892;16.746;2023-07-22T00:15:15;98844.74;;;16.79;67.03
37200;BME280;23096;50.892;16.746;2023-07-22T00:17:41;98844.30;;;16.75;66.88
37200;BME280;23096;50.892;16.746;2023-07-22T00:20:07;98840.22;;;16.71;67.10
37200;BME280;23096;50.892;16.746;2023-07-22T00:22:37;98843.16;;;16.71;67.18
37200;BME280;23096;50.892;16.746;2023-07-22T00:25:07;98853.42;;;16.70;67.01
37200;BME280;23096;50.892;16.746;2023-07-22T00:27:33;98853.89;;;16.68;67.14
37200;BME280;23096;50.892;16.746;2023-07-22T00:29:58;98856.11;;;16.69;67.09
37200;BME280;23096;50.892;16.746;2023-07-22T00:32:24;98853.50;;;16.66;67.14
37200;BME280;23096;50.892;16.746;2023-07-22T00:34:49;98854.81;;;16.64;67.15
37200;BME280;23096;50.892;16.746;2023-07-22T00:37:16;98862.74;;;16.65;67.13
37200;BME280;23096;50.892;16.746;2023-07-22T00:39:42;98863.71;;;16.67;67.31
37200;BME280;23096;50.892;16.746;2023-07-22T00:42:07;98862.23;;;16.65;67.27
37200;BME280;23096;50.892;16.746;2023-07-22T00:44:33;98863.69;;;16.61;67.15
37200;BME280;23096;50.892;16.746;2023-07-22T00:46:59;98868.34;;;16.62;67.24
37200;BME280;23096;50.892;16.746;2023-07-22T00:49:26;98858.48;;;16.64;67.24
37200;BME280;23096;50.892;16.746;2023-07-22T00:51:52;98848.62;;;16.67;67.30
37200;BME280;23096;50.892;16.746;2023-07-22T00:54:18;98850.10;;;16.68;67.40
37200;BME280;23096;50.892;16.746;2023-07-22T00:56:46;98856.89;;;16.67;67.19
37200;BME280;23096;50.892;16.746;2023-07-22T00:59:13;98858.59;;;16.68;67.34
37200;BME280;23096;50.892;16.746;2023-07-22T01:01:40;98855.69;;;16.67;67.34
37200;BME280;23096;50.892;16.746;2023-07-22T01:04:05;98851.11;;;16.66;67.44
37200;BME280;23096;50.892;16.746;2023-07-22T01:06:34;98849.77;;;16.65;67.38
37200;BME280;23096;50.892;16.746;2023-07-22T01:09:00;98855.16;;;16.67;67.52
37200;BME280;23096;50.892;16.746;2023-07-22T01:11:26;98855.04;;;16.69;67.33
37200;BME280;23096;50.892;16.746;2023-07-22T01:13:51;98856.20;;;16.67;67.50
37200;BME280;23096;50.892;16.746;2023-07-22T01:16:24;98853.98;;;16.64;67.49
37200;BME280;23096;50.892;16.746;2023-07-22T01:18:51;98853.79;;;16.64;67.52
37200;BME280;23096;50.892;16.746;2023-07-22T01:21:19;98860.17;;;16.67;67.55
37200;BME280;23096;50.892;16.746;2023-07-22T01:23:47;98861.16;;;16.66;67.55
37200;BME280;23096;50.892;16.746;2023-07-22T01:26:13;98858.36;;;16.66;67.68
37200;BME280;23096;50.892;16.746;2023-07-22T01:28:38;98861.92;;;16.65;67.56
37200;BME280;23096;50.892;16.746;2023-07-22T01:31:04;98866.52;;;16.63;67.59
37200;BME280;23096;50.892;16.746;2023-07-22T01:33:31;98869.77;;;16.64;67.59
37200;BME280;23096;50.892;16.746;2023-07-22T01:35:57;98871.01;;;16.63;67.59
37200;BME280;23096;50.892;16.746;2023-07-22T01:38:22;98866.77;;;16.65;67.67
37200;BME280;23096;50.892;16.746;2023-07-22T01:40:48;98861.67;;;16.66;67.65
37200;BME280;23096;50.892;16.746;2023-07-22T01:43:13;98862.42;;;16.68;67.68
37200;BME280;23096;50.892;16.746;2023-07-22T01:45:39;98867.96;;;16.68;67.67
37200;BME280;23096;50.892;16.746;2023-07-22T01:48:05;98867.98;;;16.67;67.75
37200;BME280;23096;50.892;16.746;2023-07-22T01:50:32;98868.66;;;16.67;67.73
37200;BME280;23096;50.892;16.746;2023-07-22T01:52:57;98874.69;;;16.69;67.86
37200;BME280;23096;50.892;16.746;2023-07-22T01:55:23;98878.38;;;16.71;67.88
37200;BME280;23096;50.892;16.746;2023-07-22T01:57:50;98887.13;;;16.70;67.83
37200;BME280;23096;50.892;16.746;2023-07-22T02:00:16;98888.02;;;16.66;67.79
37200;BME280;23096;50.892;16.746;2023-07-22T02:02:42;98892.21;;;16.63;67.69
37200;BME280;23096;50.892;16.746;2023-07-22T02:05:09;98890.98;;;16.60;67.74
37200;BME280;23096;50.892;16.746;2023-07-22T02:07:38;98887.86;;;16.57;67.86
37200;BME280;23096;50.892;16.746;2023-07-22T02:10:04;98887.79;;;16.56;67.79
37200;BME280;23096;50.892;16.746;2023-07-22T02:12:31;98889.45;;;16.54;67.91
37200;BME280;23096;50.892;16.746;2023-07-22T02:14:56;98892.21;;;16.55;67.87
37200;BME280;23096;50.892;16.746;2023-07-22T02:17:22;98896.30;;;16.56;67.79
37200;BME280;23096;50.892;16.746;2023-07-22T02:19:49;98895.59;;;16.53;67.85
37200;BME280;23096;50.892;16.746;2023-07-22T02:22:15;98899.56;;;16.53;67.95
37200;BME280;23096;50.892;16.746;2023-07-22T02:24:40;98899.30;;;16.52;67.89
37200;BME280;23096;50.892;16.746;2023-07-22T02:27:06;98896.47;;;16.50;68.00
37200;BME280;23096;50.892;16.746;2023-07-22T02:29:34;98897.77;;;16.48;68.01
37200;BME280;23096;50.892;16.746;2023-07-22T02:31:59;98900.40;;;16.48;67.93
37200;BME280;23096;50.892;16.746;2023-07-22T02:34:25;98896.20;;;16.49;68.09
37200;BME280;23096;50.892;16.746;2023-07-22T02:36:50;98895.67;;;16.49;68.04
37200;BME280;23096;50.892;16.746;2023-07-22T02:39:16;98896.20;;;16.46;67.86
37200;BME280;23096;50.892;16.746;2023-07-22T02:41:41;98901.14;;;16.42;67.94
37200;BME280;23096;50.892;16.746;2023-07-22T02:44:07;98901.96;;;16.40;67.89
37200;BME280;23096;50.892;16.746;2023-07-22T02:46:33;98905.08;;;16.40;67.82
37200;BME280;23096;50.892;16.746;2023-07-22T02:48:58;98906.10;;;16.40;67.89
37200;BME280;23096;50.892;16.746;2023-07-22T02:51:24;98906.82;;;16.40;67.83
37200;BME280;23096;50.892;16.746;2023-07-22T02:53:50;98903.05;;;16.39;67.97
37200;BME280;23096;50.892;16.746;2023-07-22T02:56:16;98903.18;;;16.40;67.93
37200;BME280;23096;50.892;16.746;2023-07-22T02:58:41;98904.31;;;16.38;67.93
37200;BME280;23096;50.892;16.746;2023-07-22T03:01:07;98909.84;;;16.38;67.93
37200;BME280;23096;50.892;16.746;2023-07-22T03:03:35;98910.83;;;16.39;67.88
37200;BME280;23096;50.892;16.746;2023-07-22T03:06:01;98915.52;;;16.39;68.00
37200;BME280;23096;50.892;16.746;2023-07-22T03:08:27;98913.41;;;16.40;67.85
37200;BME280;23096;50.892;16.746;2023-07-22T03:10:53;98912.04;;;16.39;67.90
37200;BME280;23096;50.892;16.746;2023-07-22T03:13:18;98915.29;;;16.37;67.91
37200;BME280;23096;50.892;16.746;2023-07-22T03:15:44;98921.20;;;16.37;67.91
37200;BME280;23096;50.892;16.746;2023-07-22T03:18:10;98926.46;;;16.36;67.91
37200;BME280;23096;50.892;16.746;2023-07-22T03:20:39;98929.02;;;16.34;67.79
37200;BME280;23096;50.892;16.746;2023-07-22T03:23:06;98935.91;;;16.32;67.86
37200;BME280;23096;50.892;16.746;2023-07-22T03:25:33;98940.40;;;16.32;67.86
37200;BME280;23096;50.892;16.746;2023-07-22T03:28:04;98936.19;;;16.30;67.71
37200;BME280;23096;50.892;16.746;2023-07-22T03:30:31;98935.94;;;16.28;67.83
37200;BME280;23096;50.892;16.746;2023-07-22T03:32:56;98935.15;;;16.30;67.83
37200;BME280;23096;50.892;16.746;2023-07-22T03:35:22;98937.63;;;16.32;67.80
37200;BME280;23096;50.892;16.746;2023-07-22T03:37:48;98937.35;;;16.31;67.80
37200;BME280;23096;50.892;16.746;2023-07-22T03:40:14;98937.55;;;16.30;67.68
37200;BME280;23096;50.892;16.746;2023-07-22T03:42:55;98939.44;;;16.31;67.81
37200;BME280;23096;50.892;16.746;2023-07-22T03:45:22;98940.56;;;16.29;67.78
37200;BME280;23096;50.892;16.746;2023-07-22T03:47:52;98940.87;;;16.30;67.78
37200;BME280;23096;50.892;16.746;2023-07-22T03:50:18;98945.81;;;16.32;67.75
37200;BME280;23096;50.892;16.746;2023-07-22T03:52:44;98947.16;;;16.32;67.66
37200;BME280;23096;50.892;16.746;2023-07-22T03:55:09;98949.53;;;16.30;67.39
37200;BME280;23096;50.892;16.746;2023-07-22T03:57:36;98951.53;;;16.25;67.40
37200;BME280;23096;50.892;16.746;2023-07-22T04:00:02;98954.48;;;16.22;67.32
37200;BME280;23096;50.892;16.746;2023-07-22T04:02:38;98951.77;;;16.18;67.37
37200;BME280;23096;50.892;16.746;2023-07-22T04:05:04;98953.52;;;16.18;67.45
37200;BME280;23096;50.892;16.746;2023-07-22T04:07:30;98957.61;;;16.19;67.50
37200;BME280;23096;50.892;16.746;2023-07-22T04:09:55;98958.59;;;16.20;67.44
37200;BME280;23096;50.892;16.746;2023-07-22T04:12:21;98959.54;;;16.22;67.38
37200;BME280;23096;50.892;16.746;2023-07-22T04:14:46;98957.70;;;16.23;67.37
37200;BME280;23096;50.892;16.746;2023-07-22T04:17:12;98962.22;;;16.26;67.38
37200;BME280;23096;50.892;16.746;2023-07-22T04:19:37;98962.53;;;16.27;67.15
37200;BME280;23096;50.892;16.746;2023-07-22T04:22:04;98960.63;;;16.26;67.29
37200;BME280;23096;50.892;16.746;2023-07-22T04:24:31;98968.10;;;16.29;67.34
37200;BME280;23096;50.892;16.746;2023-07-22T04:26:57;98967.19;;;16.30;67.21
37200;BME280;23096;50.892;16.746;2023-07-22T04:29:25;98965.77;;;16.34;67.28
37200;BME280;23096;50.892;16.746;2023-07-22T04:31:51;98970.42;;;16.37;67.14
37200;BME280;23096;50.892;16.746;2023-07-22T04:34:16;98973.87;;;16.40;67.26
37200;BME280;23096;50.892;16.746;2023-07-22T04:36:42;98973.56;;;16.42;67.13
37200;BME280;23096;50.892;16.746;2023-07-22T04:39:08;98976.25;;;16.46;67.20
37200;BME280;23096;50.892;16.746;2023-07-22T04:41:34;98979.14;;;16.50;67.25
37200;BME280;23096;50.892;16.746;2023-07-22T04:43:59;98985.94;;;16.53;67.04
37200;BME280;23096;50.892;16.746;2023-07-22T04:46:25;98990.48;;;16.58;67.00
37200;BME280;23096;50.892;16.746;2023-07-22T04:48:55;98990.38;;;16.62;67.04
37200;BME280;23096;50.892;16.746;2023-07-22T04:51:21;98994.63;;;16.64;66.91
37200;BME280;23096;50.892;16.746;2023-07-22T04:53:46;98995.52;;;16.63;66.98
37200;BME280;23096;50.892;16.746;2023-07-22T04:56:12;98994.79;;;16.67;66.91
37200;BME280;23096;50.892;16.746;2023-07-22T04:58:37;98995.87;;;16.69;67.00
37200;BME280;23096;50.892;16.746;2023-07-22T05:01:04;98996.77;;;16.69;66.80
37200;BME280;23096;50.892;16.746;2023-07-22T05:03:30;99002.41;;;16.70;66.87
37200;BME280;23096;50.892;16.746;2023-07-22T05:05:55;99004.39;;;16.72;66.89
37200;BME280;23096;50.892;16.746;2023-07-22T05:08:23;99009.67;;;16.76;66.86
37200;BME280;23096;50.892;16.746;2023-07-22T05:10:48;99015.10;;;16.78;66.75
37200;BME280;23096;50.892;16.746;2023-07-22T05:13:14;99017.69;;;16.78;66.70
37200;BME280;23096;50.892;16.746;2023-07-22T05:15:39;99017.41;;;16.77;66.61
37200;BME280;23096;50.892;16.746;2023-07-22T05:18:05;99020.30;;;16.78;66.49
37200;BME280;23096;50.892;16.746;2023-07-22T05:20:30;99025.98;;;16.82;66.64
37200;BME280;23096;50.892;16.746;2023-07-22T05:22:56;99025.04;;;16.83;66.61
37200;BME280;23096;50.892;16.746;2023-07-22T05:25:22;99032.63;;;16.84;66.75
37200;BME280;23096;50.892;16.746;2023-07-22T05:27:47;99032.05;;;16.85;66.76
37200;BME280;23096;50.892;16.746;2023-07-22T05:30:13;99029.12;;;16.88;66.53
37200;BME280;23096;50.892;16.746;2023-07-22T05:32:38;99027.50;;;16.91;66.74
37200;BME280;23096;50.892;16.746;2023-07-22T05:35:04;99030.75;;;16.98;66.89
37200;BME280;23096;50.892;16.746;2023-07-22T05:37:31;99031.05;;;17.01;66.63
37200;BME280;23096;50.892;16.746;2023-07-22T05:39:57;99029.70;;;17.03;66.67
37200;BME280;23096;50.892;16.746;2023-07-22T05:42:23;99030.01;;;17.07;66.73
37200;BME280;23096;50.892;16.746;2023-07-22T05:44:49;99031.83;;;17.11;66.56
37200;BME280;23096;50.892;16.746;2023-07-22T05:47:14;99038.36;;;17.12;66.41
37200;BME280;23096;50.892;16.746;2023-07-22T05:49:40;99038.64;;;17.14;66.48
37200;BME280;23096;50.892;16.746;2023-07-22T05:52:06;99049.23;;;17.16;66.40
37200;BME280;23096;50.892;16.746;2023-07-22T05:54:31;99047.59;;;17.17;66.53
37200;BME280;23096;50.892;16.746;2023-07-22T05:56:57;99047.77;;;17.20;66.48
37200;BME280;23096;50.892;16.746;2023-07-22T05:59:22;99043.36;;;17.24;66.48
37200;BME280;23096;50.892;16.746;2023-07-22T06:01:48;99042.77;;;17.28;66.47
37200;BME280;23096;50.892;16.746;2023-07-22T06:04:14;99042.91;;;17.31;66.33
37200;BME280;23096;50.892;16.746;2023-07-22T06:06:39;99043.41;;;17.37;66.27
37200;BME280;23096;50.892;16.746;2023-07-22T06:09:04;99048.61;;;17.43;66.19
37200;BME280;23096;50.892;16.746;2023-07-22T06:11:30;99051.51;;;17.49;66.14
37200;BME280;23096;50.892;16.746;2023-07-22T06:13:56;99052.71;;;17.55;66.29
37200;BME280;23096;50.892;16.746;2023-07-22T06:16:21;99052.52;;;17.60;66.02
37200;BME280;23096;50.892;16.746;2023-07-22T06:18:47;99056.65;;;17.64;65.93
37200;BME280;23096;50.892;16.746;2023-07-22T06:21:13;99059.58;;;17.67;66.16
37200;BME280;23096;50.892;16.746;2023-07-22T06:23:39;99057.90;;;17.71;65.76
37200;BME280;23096;50.892;16.746;2023-07-22T06:26:04;99058.15;;;17.76;65.87
37200;BME280;23096;50.892;16.746;2023-07-22T06:28:30;99058.75;;;17.83;65.60
37200;BME280;23096;50.892;16.746;2023-07-22T06:30:57;99064.23;;;17.87;65.63
37200;BME280;23096;50.892;16.746;2023-07-22T06:33:22;99063.56;;;17.89;65.52
37200;BME280;23096;50.892;16.746;2023-07-22T06:35:48;99065.17;;;17.91;65.34
37200;BME280;23096;50.892;16.746;2023-07-22T06:38:13;99065.06;;;17.96;65.31
37200;BME280;23096;50.892;16.746;2023-07-22T06:40:39;99068.31;;;18.02;65.00
37200;BME280;23096;50.892;16.746;2023-07-22T06:43:04;99072.27;;;18.08;65.17
37200;BME280;23096;50.892;16.746;2023-07-22T06:45:31;99071.49;;;18.14;65.00
37200;BME280;23096;50.892;16.746;2023-07-22T06:47:57;99073.04;;;18.17;64.93
37200;BME280;23096;50.892;16.746;2023-07-22T06:50:22;99070.06;;;18.20;64.79
37200;BME280;23096;50.892;16.746;2023-07-22T06:52:48;99076.11;;;18.21;64.61
37200;BME280;23096;50.892;16.746;2023-07-22T06:55:14;99075.64;;;18.26;64.66
37200;BME280;23096;50.892;16.746;2023-07-22T06:57:40;99082.30;;;18.27;64.51
37200;BME280;23096;50.892;16.746;2023-07-22T07:00:06;99078.69;;;18.27;64.28
37200;BME280;23096;50.892;16.746;2023-07-22T07:02:32;99076.33;;;18.28;64.30
37200;BME280;23096;50.892;16.746;2023-07-22T07:04:57;99081.52;;;18.34;64.16
37200;BME280;23096;50.892;16.746;2023-07-22T07:07:23;99078.52;;;18.42;64.07
37200;BME280;23096;50.892;16.746;2023-07-22T07:09:48;99080.46;;;18.49;63.95
37200;BME280;23096;50.892;16.746;2023-07-22T07:12:14;99089.05;;;18.51;63.71
37200;BME280;23096;50.892;16.746;2023-07-22T07:14:40;99089.57;;;18.46;63.60
37200;BME280;23096;50.892;16.746;2023-07-22T07:17:06;99088.98;;;18.42;63.43
37200;BME280;23096;50.892;16.746;2023-07-22T07:19:31;99096.82;;;18.34;63.15
37200;BME280;23096;50.892;16.746;2023-07-22T07:21:57;99096.39;;;18.27;62.90
37200;BME280;23096;50.892;16.746;2023-07-22T07:24:22;99096.76;;;18.27;62.93
37200;BME280;23096;50.892;16.746;2023-07-22T07:26:48;99099.80;;;18.33;62.96
37200;BME280;23096;50.892;16.746;2023-07-22T07:29:13;99100.04;;;18.43;62.83
37200;BME280;23096;50.892;16.746;2023-07-22T07:31:39;99101.54;;;18.51;62.79
37200;BME280;23096;50.892;16.746;2023-07-22T07:34:05;99101.29;;;18.61;62.67
37200;BME280;23096;50.892;16.746;2023-07-22T07:36:32;99099.58;;;18.70;62.51
37200;BME280;23096;50.892;16.746;2023-07-22T07:38:57;99101.23;;;18.77;62.23
37200;BME280;23096;50.892;16.746;2023-07-22T07:41:23;99106.13;;;18.76;62.13
37200;BME280;23096;50.892;16.746;2023-07-22T07:43:48;99103.85;;;18.79;62.02
37200;BME280;23096;50.892;16.746;2023-07-22T07:46:21;99110.23;;;18.88;61.92
37200;BME280;23096;50.892;16.746;2023-07-22T07:48:48;99114.41;;;18.98;61.73
37200;BME280;23096;50.892;16.746;2023-07-22T07:51:15;99118.05;;;19.09;61.81
37200;BME280;23096;50.892;16.746;2023-07-22T07:53:42;99118.32;;;19.23;61.55
37200;BME280;23096;50.892;16.746;2023-07-22T07:56:09;99121.77;;;19.33;61.46
37200;BME280;23096;50.892;16.746;2023-07-22T07:58:35;99125.83;;;19.45;61.29
37200;BME280;23096;50.892;16.746;2023-07-22T08:01:01;99128.26;;;19.55;61.03
37200;BME280;23096;50.892;16.746;2023-07-22T08:03:27;99133.66;;;19.64;61.03
37200;BME280;23096;50.892;16.746;2023-07-22T08:05:52;99133.46;;;19.72;60.81
37200;BME280;23096;50.892;16.746;2023-07-22T08:08:18;99132.26;;;19.72;60.36
37200;BME280;23096;50.892;16.746;2023-07-22T08:10:43;99133.98;;;19.70;60.08
37200;BME280;23096;50.892;16.746;2023-07-22T08:13:10;99136.60;;;19.65;59.81
37200;BME280;23096;50.892;16.746;2023-07-22T08:15:35;99142.66;;;19.61;59.39
37200;BME280;23096;50.892;16.746;2023-07-22T08:18:02;99143.79;;;19.59;59.25
37200;BME280;23096;50.892;16.746;2023-07-22T08:20:27;99140.61;;;19.63;59.02
37200;BME280;23096;50.892;16.746;2023-07-22T08:22:53;99146.65;;;19.66;58.82
37200;BME280;23096;50.892;16.746;2023-07-22T08:25:18;99149.45;;;19.70;58.73
37200;BME280;23096;50.892;16.746;2023-07-22T08:27:44;99147.06;;;19.72;58.59
37200;BME280;23096;50.892;16.746;2023-07-22T08:30:10;99148.32;;;19.75;58.48
37200;BME280;23096;50.892;16.746;2023-07-22T08:32:36;99152.45;;;19.78;58.27
37200;BME280;23096;50.892;16.746;2023-07-22T08:35:01;99149.34;;;19.82;57.99
37200;BME280;23096;50.892;16.746;2023-07-22T08:37:27;99146.63;;;19.86;57.94
37200;BME280;23096;50.892;16.746;2023-07-22T08:39:52;99149.86;;;19.87;57.73
37200;BME280;23096;50.892;16.746;2023-07-22T08:42:18;99154.78;;;19.84;57.42
37200;BME280;23096;50.892;16.746;2023-07-22T08:44:48;99150.54;;;19.85;57.18
37200;BME280;23096;50.892;16.746;2023-07-22T08:47:16;99143.13;;;19.89;57.08
37200;BME280;23096;50.892;16.746;2023-07-22T08:49:46;99145.73;;;19.94;56.86
37200;BME280;23096;50.892;16.746;2023-07-22T08:52:15;99147.61;;;20.04;56.61
37200;BME280;23096;50.892;16.746;2023-07-22T08:54:41;99143.94;;;20.16;56.64
37200;BME280;23096;50.892;16.746;2023-07-22T08:57:09;99136.77;;;20.31;56.36
37200;BME280;23096;50.892;16.746;2023-07-22T08:59:36;99135.89;;;20.42;56.07
37200;BME280;23096;50.892;16.746;2023-07-22T09:02:03;99138.11;;;20.55;55.83
37200;BME280;23096;50.892;16.746;2023-07-22T09:04:29;99144.78;;;20.64;55.63
37200;BME280;23096;50.892;16.746;2023-07-22T09:06:55;99142.95;;;20.67;55.35
37200;BME280;23096;50.892;16.746;2023-07-22T09:09:21;99138.71;;;20.71;55.12
37200;BME280;23096;50.892;16.746;2023-07-22T09:11:48;99134.72;;;20.77;54.79
37200;BME280;23096;50.892;16.746;2023-07-22T09:14:17;99141.23;;;20.79;54.32
37200;BME280;23096;50.892;16.746;2023-07-22T09:16:44;99135.17;;;20.78;53.98
37200;BME280;23096;50.892;16.746;2023-07-22T09:19:09;99137.23;;;20.79;53.70
37200;BME280;23096;50.892;16.746;2023-07-22T09:21:35;99138.09;;;20.74;53.50
37200;BME280;23096;50.892;16.746;2023-07-22T09:24:01;99141.30;;;20.76;53.28
37200;BME280;23096;50.892;16.746;2023-07-22T09:26:26;99145.30;;;20.78;53.15
37200;BME280;23096;50.892;16.746;2023-07-22T09:28:54;99139.05;;;20.84;52.82
37200;BME280;23096;50.892;16.746;2023-07-22T09:31:22;99139.60;;;20.91;52.60
37200;BME280;23096;50.892;16.746;2023-07-22T09:33:48;99140.23;;;20.97;52.58
37200;BME280;23096;50.892;16.746;2023-07-22T09:36:13;99139.70;;;21.01;52.45
37200;BME280;23096;50.892;16.746;2023-07-22T09:38:39;99142.02;;;21.01;52.09
37200;BME280;23096;50.892;16.746;2023-07-22T09:41:05;99138.30;;;20.99;51.97
37200;BME280;23096;50.892;16.746;2023-07-22T09:43:31;99135.81;;;20.97;51.82
37200;BME280;23096;50.892;16.746;2023-07-22T09:46:08;99134.59;;;20.95;51.61
37200;BME280;23096;50.892;16.746;2023-07-22T09:48:44;99139.48;;;21.00;51.47
37200;BME280;23096;50.892;16.746;2023-07-22T09:51:14;99142.98;;;21.04;51.39
37200;BME280;23096;50.892;16.746;2023-07-22T09:53:47;99144.33;;;21.05;51.22
37200;BME280;23096;50.892;16.746;2023-07-22T09:56:13;99146.20;;;21.08;51.17
37200;BME280;23096;50.892;16.746;2023-07-22T09:58:39;99143.81;;;21.16;51.10
37200;BME280;23096;50.892;16.746;2023-07-22T10:01:05;99146.21;;;21.23;50.89
37200;BME280;23096;50.892;16.746;2023-07-22T10:03:35;99143.84;;;21.27;50.65
37200;BME280;23096;50.892;16.746;2023-07-22T10:06:02;99145.81;;;21.35;50.45
37200;BME280;23096;50.892;16.746;2023-07-22T10:08:30;99147.35;;;21.42;50.27
37200;BME280;23096;50.892;16.746;2023-07-22T10:10:59;99152.43;;;21.48;50.05
37200;BME280;23096;50.892;16.746;2023-07-22T10:13:25;99151.20;;;21.54;49.76
37200;BME280;23096;50.892;16.746;2023-07-22T10:15:52;99143.45;;;21.61;49.55
37200;BME280;23096;50.892;16.746;2023-07-22T10:18:18;99142.22;;;21.70;49.23
37200;BME280;23096;50.892;16.746;2023-07-22T10:20:45;99143.71;;;21.73;48.99
37200;BME280;23096;50.892;16.746;2023-07-22T10:23:12;99147.61;;;21.82;48.76
37200;BME280;23096;50.892;16.746;2023-07-22T10:25:39;99142.86;;;21.91;48.55
37200;BME280;23096;50.892;16.746;2023-07-22T10:28:06;99138.71;;;22.03;48.38
37200;BME280;23096;50.892;16.746;2023-07-22T10:30:32;99141.36;;;22.20;48.33
37200;BME280;23096;50.892;16.746;2023-07-22T10:32:58;99139.75;;;22.34;48.09
37200;BME280;23096;50.892;16.746;2023-07-22T10:38:06;99140.95;;;22.47;47.53
37200;BME280;23096;50.892;16.746;2023-07-22T10:40:32;99145.23;;;22.48;47.10
37200;BME280;23096;50.892;16.746;2023-07-22T10:43:05;99146.63;;;22.52;46.89
37200;BME280;23096;50.892;16.746;2023-07-22T10:45:32;99140.35;;;22.56;46.69
37200;BME280;23096;50.892;16.746;2023-07-22T10:50:38;99143.89;;;22.72;46.33
37200;BME280;23096;50.892;16.746;2023-07-22T10:53:05;99140.63;;;22.68;46.05
37200;BME280;23096;50.892;16.746;2023-07-22T10:55:31;99144.65;;;22.63;45.99
37200;BME280;23096;50.892;16.746;2023-07-22T10:58:03;99147.25;;;22.51;45.94
37200;BME280;23096;50.892;16.746;2023-07-22T11:00:29;99148.77;;;22.39;45.87
37200;BME280;23096;50.892;16.746;2023-07-22T11:03:14;99151.23;;;22.39;46.04
37200;BME280;23096;50.892;16.746;2023-07-22T11:05:48;99144.70;;;22.42;45.91
37200;BME280;23096;50.892;16.746;2023-07-22T11:08:14;99146.02;;;22.38;45.75
37200;BME280;23096;50.892;16.746;2023-07-22T11:10:52;99152.36;;;22.29;45.61
37200;BME280;23096;50.892;16.746;2023-07-22T11:13:18;99156.60;;;22.20;45.57
37200;BME280;23096;50.892;16.746;2023-07-22T11:15:47;99147.87;;;22.20;45.54
37200;BME280;23096;50.892;16.746;2023-07-22T11:18:13;99151.80;;;22.26;45.42
37200;BME280;23096;50.892;16.746;2023-07-22T11:20:38;99147.11;;;22.36;45.36
37200;BME280;23096;50.892;16.746;2023-07-22T11:23:04;99153.73;;;22.45;45.28
37200;BME280;23096;50.892;16.746;2023-07-22T11:25:33;99153.06;;;22.47;45.06
37200;BME280;23096;50.892;16.746;2023-07-22T11:27:59;99161.88;;;22.39;44.82
37200;BME280;23096;50.892;16.746;2023-07-22T11:30:24;99159.80;;;22.26;44.69
37200;BME280;23096;50.892;16.746;2023-07-22T11:32:50;99162.97;;;22.15;44.60
37200;BME280;23096;50.892;16.746;2023-07-22T11:35:16;99168.42;;;22.01;44.30
37200;BME280;23096;50.892;16.746;2023-07-22T11:37:42;99168.85;;;21.93;44.59
37200;BME280;23096;50.892;16.746;2023-07-22T11:40:11;99164.77;;;21.92;44.62
37200;BME280;23096;50.892;16.746;2023-07-22T11:42:37;99166.58;;;21.87;44.56
37200;BME280;23096;50.892;16.746;2023-07-22T11:45:03;99169.67;;;21.84;44.51
37200;BME280;23096;50.892;16.746;2023-07-22T11:47:29;99166.95;;;21.78;44.45
37200;BME280;23096;50.892;16.746;2023-07-22T11:49:56;99162.54;;;21.70;44.46
37200;BME280;23096;50.892;16.746;2023-07-22T11:52:21;99160.79;;;21.72;44.53
37200;BME280;23096;50.892;16.746;2023-07-22T11:54:47;99161.36;;;21.80;44.54
37200;BME280;23096;50.892;16.746;2023-07-22T11:57:21;99159.64;;;21.82;44.53
37200;BME280;23096;50.892;16.746;2023-07-22T11:59:53;99156.39;;;21.86;44.60
37200;BME280;23096;50.892;16.746;2023-07-22T12:02:24;99157.81;;;21.96;44.74
37200;BME280;23096;50.892;16.746;2023-07-22T12:05:03;99162.20;;;22.11;44.66
37200;BME280;23096;50.892;16.746;2023-07-22T12:07:32;99161.56;;;22.19;44.79
37200;BME280;23096;50.892;16.746;2023-07-22T12:10:00;99163.56;;;22.20;44.72
37200;BME280;23096;50.892;16.746;2023-07-22T12:12:37;99160.14;;;22.09;44.57
37200;BME280;23096;50.892;16.746;2023-07-22T12:15:14;99160.13;;;22.00;44.49
37200;BME280;23096;50.892;16.746;2023-07-22T12:17:44;99162.44;;;21.91;44.47
37200;BME280;23096;50.892;16.746;2023-07-22T12:20:10;99164.91;;;21.84;44.39
37200;BME280;23096;50.892;16.746;2023-07-22T12:22:36;99161.85;;;21.87;44.42
37200;BME280;23096;50.892;16.746;2023-07-22T12:25:02;99158.77;;;21.95;44.47
37200;BME280;23096;50.892;16.746;2023-07-22T12:27:27;99162.33;;;21.96;44.42
37200;BME280;23096;50.892;16.746;2023-07-22T12:29:53;99170.38;;;21.88;44.28
37200;BME280;23096;50.892;16.746;2023-07-22T12:32:18;99165.55;;;21.76;44.13
37200;BME280;23096;50.892;16.746;2023-07-22T12:34:44;99169.95;;;21.78;44.17
37200;BME280;23096;50.892;16.746;2023-07-22T12:37:09;99164.53;;;21.93;44.21
37200;BME280;23096;50.892;16.746;2023-07-22T12:39:35;99160.27;;;22.11;44.23
37200;BME280;23096;50.892;16.746;2023-07-22T12:42:01;99160.03;;;22.25;44.07
37200;BME280;23096;50.892;16.746;2023-07-22T12:44:26;99161.11;;;22.34;44.01
37200;BME280;23096;50.892;16.746;2023-07-22T12:46:52;99158.81;;;22.34;43.82
37200;BME280;23096;50.892;16.746;2023-07-22T12:49:19;99157.16;;;22.28;43.57
37200;BME280;23096;50.892;16.746;2023-07-22T12:51:44;99156.96;;;22.31;43.68